sensor_id;sensor_type;location;lat;lon;timestamp;temperature;humidity
33564;DHT22;19894;48.452;11.494;2022-08-19T00:00:14;23.30;67.70
33564;DHT22;19894;48.452;11.494;2022-08-19T00:02:41;23.40;67.80
33564;DHT22;19894;48.452;11.494;2022-08-19T00:05:10;23.30;67.80
33564;DHT22;19894;48.452;11.494;2022-08-19T00:07:36;23.40;68.30
33564;DHT22;19894;48.452;11.494;2022-08-19T00:10:04;23.40;68.00
33564;DHT22;19894;48.452;11.494;2022-08-19T00:12:30;23.40;67.80
33564;DHT22;19894;48.452;11.494;2022-08-19T00:14:55;23.40;67.80
33564;DHT22;19894;48.452;11.494;2022-08-19T00:17:21;23.40;67.80
33564;DHT22;19894;48.452;11.494;2022-08-19T00:19:47;23.40;67.70
33564;DHT22;19894;48.452;11.494;2022-08-19T00:22:12;23.40;67.70
33564;DHT22;19894;48.452;11.494;2022-08-19T00:24:38;23.40;67.60
33564;DHT22;19894;48.452;11.494;2022-08-19T00:27:05;23.40;67.60
33564;DHT22;19894;48.452;11.494;2022-08-19T00:29:31;23.40;67.60
33564;DHT22;19894;48.452;11.494;2022-08-19T00:31:56;23.40;67.50
33564;DHT22;19894;48.452;11.494;2022-08-19T00:34:23;23.40;67.70
33564;DHT22;19894;48.452;11.494;2022-08-19T00:36:49;23.40;67.50
33564;DHT22;19894;48.452;11.494;2022-08-19T00:39:16;23.30;67.40
33564;DHT22;19894;48.452;11.494;2022-08-19T00:41:43;23.30;67.40
33564;DHT22;19894;48.452;11.494;2022-08-19T00:44:15;23.30;67.50
33564;DHT22;19894;48.452;11.494;2022-08-19T00:46:43;23.30;67.40
33564;DHT22;19894;48.452;11.494;2022-08-19T00:49:36;23.30;67.40
33564;DHT22;19894;48.452;11.494;2022-08-19T00:52:08;23.30;67.20
33564;DHT22;19894;48.452;11.494;2022-08-19T00:54:36;23.30;67.30
33564;DHT22;19894;48.452;11.494;2022-08-19T00:57:04;23.30;67.40
33564;DHT22;19894;48.452;11.494;2022-08-19T00:59:31;23.30;67.50
33564;DHT22;19894;48.452;11.494;2022-08-19T01:01:58;23.30;67.40
33564;DHT22;19894;48.452;11.494;2022-08-19T01:04:23;23.30;67.50
33564;DHT22;19894;48.452;11.494;2022-08-19T01:06:49;23.30;67.60
33564;DHT22;19894;48.452;11.494;2022-08-19T01:09:14;23.30;68.10
33564;DHT22;19894;48.452;11.494;2022-08-19T01:11:43;23.30;67.50
33564;DHT22;19894;48.452;11.494;2022-08-19T01:14:09;23.30;67.50
33564;DHT22;19894;48.452;11.494;2022-08-19T01:16:35;23.40;67.60
33564;DHT22;19894;48.452;11.494;2022-08-19T01:19:02;23.40;67.60
33564;DHT22;19894;48.452;11.494;2022-08-19T01:21:42;23.30;67.50
33564;DHT22;19894;48.452;11.494;2022-08-19T01:24:08;23.40;67.60
33564;DHT22;19894;48.452;11.494;2022-08-19T01:26:40;23.40;67.60
33564;DHT22;19894;48.452;11.494;2022-08-19T01:29:07;23.40;67.50
33564;DHT22;19894;48.452;11.494;2022-08-19T01:31:33;23.30;67.50
33564;DHT22;19894;48.452;11.494;2022-08-19T01:34:00;23.40;67.50
33564;DHT22;19894;48.452;11.494;2022-08-19T01:38:57;23.30;67.20
33564;DHT22;19894;48.452;11.494;2022-08-19T01:41:25;23.30;67.20
33564;DHT22;19894;48.452;11.494;2022-08-19T01:43:51;23.30;67.20
33564;DHT22;19894;48.452;11.494;2022-08-19T01:46:18;23.30;67.40
33564;DHT22;19894;48.452;11.494;2022-08-19T01:48:44;23.30;67.30
33564;DHT22;19894;48.452;11.494;2022-08-19T01:51:11;23.30;67.20
33564;DHT22;19894;48.452;11.494;2022-08-19T01:53:37;23.30;67.20
33564;DHT22;19894;48.452;11.494;2022-08-19T01:56:04;23.30;67.20
33564;DHT22;19894;48.452;11.494;2022-08-19T01:58:35;23.30;67.00
33564;DHT22;19894;48.452;11.494;2022-08-19T02:01:03;23.30;67.10
33564;DHT22;19894;48.452;11.494;2022-08-19T02:03:29;23.30;67.10
33564;DHT22;19894;48.452;11.494;2022-08-19T02:05:57;23.30;67.30
33564;DHT22;19894;48.452;11.494;2022-08-19T02:08:24;23.30;67.30
33564;DHT22;19894;48.452;11.494;2022-08-19T02:10:49;23.30;67.30
33564;DHT22;19894;48.452;11.494;2022-08-19T02:13:15;23.30;67.40
33564;DHT22;19894;48.452;11.494;2022-08-19T02:15:41;23.30;67.40
33564;DHT22;19894;48.452;11.494;2022-08-19T02:18:06;23.30;67.40
33564;DHT22;19894;48.452;11.494;2022-08-19T02:20:34;23.30;67.30
33564;DHT22;19894;48.452;11.494;2022-08-19T02:23:00;23.30;67.30
33564;DHT22;19894;48.452;11.494;2022-08-19T02:25:27;23.40;67.40
33564;DHT22;19894;48.452;11.494;2022-08-19T02:27:52;23.40;67.50
33564;DHT22;19894;48.452;11.494;2022-08-19T02:30:19;23.40;67.50
33564;DHT22;19894;48.452;11.494;2022-08-19T02:32:45;23.30;67.30
33564;DHT22;19894;48.452;11.494;2022-08-19T02:35:13;23.30;67.40
33564;DHT22;19894;48.452;11.494;2022-08-19T02:37:39;23.40;67.30
33564;DHT22;19894;48.452;11.494;2022-08-19T02:40:24;23.30;67.70
33564;DHT22;19894;48.452;11.494;2022-08-19T02:42:49;23.40;67.20
33564;DHT22;19894;48.452;11.494;2022-08-19T02:45:15;23.30;67.20
33564;DHT22;19894;48.452;11.494;2022-08-19T02:47:41;23.30;67.80
33564;DHT22;19894;48.452;11.494;2022-08-19T02:50:08;23.40;67.20
33564;DHT22;19894;48.452;11.494;2022-08-19T02:52:34;23.30;67.20
33564;DHT22;19894;48.452;11.494;2022-08-19T02:55:00;23.30;67.30
33564;DHT22;19894;48.452;11.494;2022-08-19T02:57:26;23.30;67.10
33564;DHT22;19894;48.452;11.494;2022-08-19T02:59:52;23.30;67.10
33564;DHT22;19894;48.452;11.494;2022-08-19T03:02:17;23.30;67.10
33564;DHT22;19894;48.452;11.494;2022-08-19T03:04:43;23.30;67.00
33564;DHT22;19894;48.452;11.494;2022-08-19T03:07:13;23.30;67.10
33564;DHT22;19894;48.452;11.494;2022-08-19T03:09:38;23.30;67.00
33564;DHT22;19894;48.452;11.494;2022-08-19T03:12:04;23.30;67.00
33564;DHT22;19894;48.452;11.494;2022-08-19T03:14:31;23.30;67.40
33564;DHT22;19894;48.452;11.494;2022-08-19T03:16:57;23.30;67.40
33564;DHT22;19894;48.452;11.494;2022-08-19T03:19:23;23.30;67.40
33564;DHT22;19894;48.452;11.494;2022-08-19T03:21:49;23.30;67.30
33564;DHT22;19894;48.452;11.494;2022-08-19T03:24:16;23.30;67.40
33564;DHT22;19894;48.452;11.494;2022-08-19T03:26:48;23.30;67.40
33564;DHT22;19894;48.452;11.494;2022-08-19T03:29:14;23.30;67.40
33564;DHT22;19894;48.452;11.494;2022-08-19T03:31:42;23.30;67.70
33564;DHT22;19894;48.452;11.494;2022-08-19T03:34:13;23.40;67.60
33564;DHT22;19894;48.452;11.494;2022-08-19T03:36:39;23.40;67.50
33564;DHT22;19894;48.452;11.494;2022-08-19T03:39:05;23.40;67.50
33564;DHT22;19894;48.452;11.494;2022-08-19T03:41:35;23.40;67.40
33564;DHT22;19894;48.452;11.494;2022-08-19T03:44:02;23.30;67.50
33564;DHT22;19894;48.452;11.494;2022-08-19T03:46:30;23.30;67.50
33564;DHT22;19894;48.452;11.494;2022-08-19T03:48:57;23.40;67.50
33564;DHT22;19894;48.452;11.494;2022-08-19T03:51:30;23.40;67.50
33564;DHT22;19894;48.452;11.494;2022-08-19T03:53:59;23.40;67.40
33564;DHT22;19894;48.452;11.494;2022-08-19T03:56:26;23.40;67.30
33564;DHT22;19894;48.452;11.494;2022-08-19T03:58:56;23.40;67.40
33564;DHT22;19894;48.452;11.494;2022-08-19T04:01:24;23.30;67.30
33564;DHT22;19894;48.452;11.494;2022-08-19T04:03:52;23.30;67.30
33564;DHT22;19894;48.452;11.494;2022-08-19T04:06:25;23.30;67.30
33564;DHT22;19894;48.452;11.494;2022-08-19T04:08:52;23.40;67.90
33564;DHT22;19894;48.452;11.494;2022-08-19T04:11:21;23.30;67.30
33564;DHT22;19894;48.452;11.494;2022-08-19T04:13:48;23.30;67.20
33564;DHT22;19894;48.452;11.494;2022-08-19T04:16:14;23.30;67.40
33564;DHT22;19894;48.452;11.494;2022-08-19T04:18:40;23.30;67.10
33564;DHT22;19894;48.452;11.494;2022-08-19T04:21:07;23.30;67.20
33564;DHT22;19894;48.452;11.494;2022-08-19T04:23:34;23.30;67.10
33564;DHT22;19894;48.452;11.494;2022-08-19T04:26:01;23.30;67.10
33564;DHT22;19894;48.452;11.494;2022-08-19T04:28:27;23.30;67.00
33564;DHT22;19894;48.452;11.494;2022-08-19T04:30:53;23.30;67.10
33564;DHT22;19894;48.452;11.494;2022-08-19T04:33:22;23.30;67.30
33564;DHT22;19894;48.452;11.494;2022-08-19T04:35:49;23.30;67.20
33564;DHT22;19894;48.452;11.494;2022-08-19T04:38:19;23.30;67.30
33564;DHT22;19894;48.452;11.494;2022-08-19T04:40:50;23.30;67.30
33564;DHT22;19894;48.452;11.494;2022-08-19T04:43:35;23.30;67.30
33564;DHT22;19894;48.452;11.494;2022-08-19T04:46:19;23.30;67.40
33564;DHT22;19894;48.452;11.494;2022-08-19T04:48:45;23.30;67.40
33564;DHT22;19894;48.452;11.494;2022-08-19T04:51:11;23.30;67.40
33564;DHT22;19894;48.452;11.494;2022-08-19T04:53:40;23.30;67.40
33564;DHT22;19894;48.452;11.494;2022-08-19T04:56:11;23.40;67.40
33564;DHT22;19894;48.452;11.494;2022-08-19T04:58:39;23.40;67.50
33564;DHT22;19894;48.452;11.494;2022-08-19T05:01:05;23.40;67.40
33564;DHT22;19894;48.452;11.494;2022-08-19T05:03:30;23.40;67.40
33564;DHT22;19894;48.452;11.494;2022-08-19T05:06:04;23.30;67.20
33564;DHT22;19894;48.452;11.494;2022-08-19T05:08:29;23.30;67.20
33564;DHT22;19894;48.452;11.494;2022-08-19T05:10:56;23.40;67.10
33564;DHT22;19894;48.452;11.494;2022-08-19T05:13:23;23.30;67.20
33564;DHT22;19894;48.452;11.494;2022-08-19T05:15:58;23.40;67.20
33564;DHT22;19894;48.452;11.494;2022-08-19T05:18:24;23.30;67.30
33564;DHT22;19894;48.452;11.494;2022-08-19T05:21:10;23.30;67.30
33564;DHT22;19894;48.452;11.494;2022-08-19T05:23:55;23.30;67.30
33564;DHT22;19894;48.452;11.494;2022-08-19T05:26:22;23.30;67.20
33564;DHT22;19894;48.452;11.494;2022-08-19T05:28:48;23.30;67.10
33564;DHT22;19894;48.452;11.494;2022-08-19T05:31:14;23.30;67.10
33564;DHT22;19894;48.452;11.494;2022-08-19T05:33:39;23.30;67.10
33564;DHT22;19894;48.452;11.494;2022-08-19T05:36:05;23.30;67.20
33564;DHT22;19894;48.452;11.494;2022-08-19T05:38:33;23.30;67.20
33564;DHT22;19894;48.452;11.494;2022-08-19T05:40:59;23.30;67.40
33564;DHT22;19894;48.452;11.494;2022-08-19T05:43:24;23.30;67.30
33564;DHT22;19894;48.452;11.494;2022-08-19T05:45:50;23.30;67.40
33564;DHT22;19894;48.452;11.494;2022-08-19T05:48:16;23.30;67.30
33564;DHT22;19894;48.452;11.494;2022-08-19T05:50:42;23.30;67.50
33564;DHT22;19894;48.452;11.494;2022-08-19T05:53:10;23.30;67.50
33564;DHT22;19894;48.452;11.494;2022-08-19T05:55:36;23.30;67.50
33564;DHT22;19894;48.452;11.494;2022-08-19T05:58:04;23.30;67.50
33564;DHT22;19894;48.452;11.494;2022-08-19T06:00:33;23.30;67.50
33564;DHT22;19894;48.452;11.494;2022-08-19T06:02:59;23.30;67.50
33564;DHT22;19894;48.452;11.494;2022-08-19T06:05:29;23.30;67.60
33564;DHT22;19894;48.452;11.494;2022-08-19T06:07:55;23.30;67.50
33564;DHT22;19894;48.452;11.494;2022-08-19T06:10:20;23.30;67.40
33564;DHT22;19894;48.452;11.494;2022-08-19T06:12:47;23.40;67.40
33564;DHT22;19894;48.452;11.494;2022-08-19T06:15:14;23.40;67.30
33564;DHT22;19894;48.452;11.494;2022-08-19T06:17:40;23.30;67.30
33564;DHT22;19894;48.452;11.494;2022-08-19T06:20:08;23.30;67.30
33564;DHT22;19894;48.452;11.494;2022-08-19T06:22:48;23.40;67.40
33564;DHT22;19894;48.452;11.494;2022-08-19T06:25:15;23.30;67.40
33564;DHT22;19894;48.452;11.494;2022-08-19T06:27:42;23.30;67.30
33564;DHT22;19894;48.452;11.494;2022-08-19T06:30:08;23.30;67.30
33564;DHT22;19894;48.452;11.494;2022-08-19T06:32:34;23.30;67.30
33564;DHT22;19894;48.452;11.494;2022-08-19T06:34:59;23.30;67.20
33564;DHT22;19894;48.452;11.494;2022-08-19T06:37:25;23.30;67.30
33564;DHT22;19894;48.452;11.494;2022-08-19T06:39:50;23.30;67.20
33564;DHT22;19894;48.452;11.494;2022-08-19T06:42:16;23.30;67.20
33564;DHT22;19894;48.452;11.494;2022-08-19T06:44:46;23.30;67.10
33564;DHT22;19894;48.452;11.494;2022-08-19T06:47:16;23.30;67.20
33564;DHT22;19894;48.452;11.494;2022-08-19T06:49:43;23.30;67.30
33564;DHT22;19894;48.452;11.494;2022-08-19T06:52:09;23.30;67.40
33564;DHT22;19894;48.452;11.494;2022-08-19T06:54:38;23.30;67.50
33564;DHT22;19894;48.452;11.494;2022-08-19T06:57:05;23.30;67.60
33564;DHT22;19894;48.452;11.494;2022-08-19T06:59:32;23.30;67.60
33564;DHT22;19894;48.452;11.494;2022-08-19T07:02:00;23.30;67.60
33564;DHT22;19894;48.452;11.494;2022-08-19T07:04:29;23.30;67.70
33564;DHT22;19894;48.452;11.494;2022-08-19T07:06:58;23.30;67.70
33564;DHT22;19894;48.452;11.494;2022-08-19T07:09:24;23.30;67.60
33564;DHT22;19894;48.452;11.494;2022-08-19T07:11:51;23.30;67.60
33564;DHT22;19894;48.452;11.494;2022-08-19T07:14:23;23.40;67.60
33564;DHT22;19894;48.452;11.494;2022-08-19T07:16:52;23.30;67.60
33564;DHT22;19894;48.452;11.494;2022-08-19T07:19:21;23.40;67.70
33564;DHT22;19894;48.452;11.494;2022-08-19T07:21:49;23.30;67.50
33564;DHT22;19894;48.452;11.494;2022-08-19T07:24:17;23.40;67.50
33564;DHT22;19894;48.452;11.494;2022-08-19T07:26:43;23.30;67.40
33564;DHT22;19894;48.452;11.494;2022-08-19T07:29:10;23.40;67.50
33564;DHT22;19894;48.452;11.494;2022-08-19T07:31:36;23.30;67.40
33564;DHT22;19894;48.452;11.494;2022-08-19T07:34:08;23.30;67.40
33564;DHT22;19894;48.452;11.494;2022-08-19T07:36:38;23.30;67.40
33564;DHT22;19894;48.452;11.494;2022-08-19T07:39:11;23.30;67.50
33564;DHT22;19894;48.452;11.494;2022-08-19T07:41:37;23.30;67.50
33564;DHT22;19894;48.452;11.494;2022-08-19T07:44:04;23.30;67.50
33564;DHT22;19894;48.452;11.494;2022-08-19T07:46:34;23.30;67.40
33564;DHT22;19894;48.452;11.494;2022-08-19T07:49:00;23.30;67.50
33564;DHT22;19894;48.452;11.494;2022-08-19T07:51:27;23.30;67.40
33564;DHT22;19894;48.452;11.494;2022-08-19T07:53:54;23.30;67.50
33564;DHT22;19894;48.452;11.494;2022-08-19T07:56:20;23.30;67.70
33564;DHT22;19894;48.452;11.494;2022-08-19T07:58:48;23.30;67.60
33564;DHT22;19894;48.452;11.494;2022-08-19T08:01:18;23.30;67.70
33564;DHT22;19894;48.452;11.494;2022-08-19T08:03:45;23.30;67.80
33564;DHT22;19894;48.452;11.494;2022-08-19T08:06:29;23.30;67.90
33564;DHT22;19894;48.452;11.494;2022-08-19T08:09:14;23.30;68.00
33564;DHT22;19894;48.452;11.494;2022-08-19T08:11:52;23.30;68.00
33564;DHT22;19894;48.452;11.494;2022-08-19T08:14:21;23.40;68.00
33564;DHT22;19894;48.452;11.494;2022-08-19T08:16:48;23.30;67.90
33564;DHT22;19894;48.452;11.494;2022-08-19T08:19:18;23.40;68.00
33564;DHT22;19894;48.452;11.494;2022-08-19T08:21:44;23.30;68.00
33564;DHT22;19894;48.452;11.494;2022-08-19T08:24:11;23.30;68.00
33564;DHT22;19894;48.452;11.494;2022-08-19T08:26:38;23.40;68.50
33564;DHT22;19894;48.452;11.494;2022-08-19T08:29:03;23.30;67.90
33564;DHT22;19894;48.452;11.494;2022-08-19T08:31:29;23.40;67.90
33564;DHT22;19894;48.452;11.494;2022-08-19T08:33:55;23.30;67.80
33564;DHT22;19894;48.452;11.494;2022-08-19T08:36:21;23.40;67.90
33564;DHT22;19894;48.452;11.494;2022-08-19T08:38:46;23.30;67.90
33564;DHT22;19894;48.452;11.494;2022-08-19T08:41:35;23.30;67.90
33564;DHT22;19894;48.452;11.494;2022-08-19T08:44:03;23.30;67.90
33564;DHT22;19894;48.452;11.494;2022-08-19T08:46:48;23.30;68.00
33564;DHT22;19894;48.452;11.494;2022-08-19T08:52:06;23.30;68.00
33564;DHT22;19894;48.452;11.494;2022-08-19T08:54:40;23.30;67.90
33564;DHT22;19894;48.452;11.494;2022-08-19T08:57:42;23.30;67.90
33564;DHT22;19894;48.452;11.494;2022-08-19T09:00:10;23.30;68.20
33564;DHT22;19894;48.452;11.494;2022-08-19T09:02:37;23.30;68.50
33564;DHT22;19894;48.452;11.494;2022-08-19T09:05:03;23.30;68.40
33564;DHT22;19894;48.452;11.494;2022-08-19T09:07:46;23.30;68.50
33564;DHT22;19894;48.452;11.494;2022-08-19T09:10:34;23.30;68.70
33564;DHT22;19894;48.452;11.494;2022-08-19T09:13:38;23.30;68.70
33564;DHT22;19894;48.452;11.494;2022-08-19T09:16:07;23.30;68.90
33564;DHT22;19894;48.452;11.494;2022-08-19T09:18:46;23.40;68.80
33564;DHT22;19894;48.452;11.494;2022-08-19T09:21:13;23.40;68.90
33564;DHT22;19894;48.452;11.494;2022-08-19T09:23:39;23.30;68.90
33564;DHT22;19894;48.452;11.494;2022-08-19T09:26:10;23.30;68.90
33564;DHT22;19894;48.452;11.494;2022-08-19T09:28:39;23.40;68.90
33564;DHT22;19894;48.452;11.494;2022-08-19T09:31:09;23.40;69.00
33564;DHT22;19894;48.452;11.494;2022-08-19T09:33:35;23.40;68.90
33564;DHT22;19894;48.452;11.494;2022-08-19T09:36:06;23.30;68.90
33564;DHT22;19894;48.452;11.494;2022-08-19T09:38:32;23.30;68.90
33564;DHT22;19894;48.452;11.494;2022-08-19T09:41:03;23.40;68.80
33564;DHT22;19894;48.452;11.494;2022-08-19T09:43:30;23.40;68.80
33564;DHT22;19894;48.452;11.494;2022-08-19T09:45:56;23.30;68.70
33564;DHT22;19894;48.452;11.494;2022-08-19T09:48:22;23.30;68.70
33564;DHT22;19894;48.452;11.494;2022-08-19T09:50:47;23.30;68.70
33564;DHT22;19894;48.452;11.494;2022-08-19T09:53:13;23.30;68.60
33564;DHT22;19894;48.452;11.494;2022-08-19T09:55:43;23.30;68.70
33564;DHT22;19894;48.452;11.494;2022-08-19T09:58:08;23.30;68.60
33564;DHT22;19894;48.452;11.494;2022-08-19T10:00:37;23.30;68.70
33564;DHT22;19894;48.452;11.494;2022-08-19T10:03:03;23.30;68.60
33564;DHT22;19894;48.452;11.494;2022-08-19T10:05:28;23.30;68.50
33564;DHT22;19894;48.452;11.494;2022-08-19T10:08:12;23.30;68.40
33564;DHT22;19894;48.452;11.494;2022-08-19T10:10:38;23.30;68.30
33564;DHT22;19894;48.452;11.494;2022-08-19T10:13:03;23.30;68.70
33564;DHT22;19894;48.452;11.494;2022-08-19T10:15:29;23.30;68.90
33564;DHT22;19894;48.452;11.494;2022-08-19T10:17:54;23.30;68.90
33564;DHT22;19894;48.452;11.494;2022-08-19T10:20:20;23.30;68.90
33564;DHT22;19894;48.452;11.494;2022-08-19T10:22:47;23.40;69.10
33564;DHT22;19894;48.452;11.494;2022-08-19T10:25:12;23.30;69.10
33564;DHT22;19894;48.452;11.494;2022-08-19T10:27:42;23.30;69.10
33564;DHT22;19894;48.452;11.494;2022-08-19T10:30:08;23.30;69.10
33564;DHT22;19894;48.452;11.494;2022-08-19T10:32:34;23.40;69.20
33564;DHT22;19894;48.452;11.494;2022-08-19T10:35:00;23.30;69.20
33564;DHT22;19894;48.452;11.494;2022-08-19T10:37:26;23.40;69.30
33564;DHT22;19894;48.452;11.494;2022-08-19T10:39:51;23.30;69.20
33564;DHT22;19894;48.452;11.494;2022-08-19T10:42:17;23.40;69.40
33564;DHT22;19894;48.452;11.494;2022-08-19T10:44:44;23.40;69.40
33564;DHT22;19894;48.452;11.494;2022-08-19T10:47:10;23.40;69.30
33564;DHT22;19894;48.452;11.494;2022-08-19T10:49:36;23.40;69.20
33564;DHT22;19894;48.452;11.494;2022-08-19T10:52:24;23.40;69.30
33564;DHT22;19894;48.452;11.494;2022-08-19T10:55:03;23.40;69.40
33564;DHT22;19894;48.452;11.494;2022-08-19T10:57:48;23.30;69.10
33564;DHT22;19894;48.452;11.494;2022-08-19T11:00:14;23.30;69.30
33564;DHT22;19894;48.452;11.494;2022-08-19T11:02:40;23.30;69.30
33564;DHT22;19894;48.452;11.494;2022-08-19T11:05:08;23.30;69.30
33564;DHT22;19894;48.452;11.494;2022-08-19T11:07:37;23.30;69.30
33564;DHT22;19894;48.452;11.494;2022-08-19T11:10:04;23.30;69.40
33564;DHT22;19894;48.452;11.494;2022-08-19T11:12:30;23.30;69.40
33564;DHT22;19894;48.452;11.494;2022-08-19T11:14:55;23.30;69.60
33564;DHT22;19894;48.452;11.494;2022-08-19T11:17:21;23.30;69.70
33564;DHT22;19894;48.452;11.494;2022-08-19T11:19:49;23.30;69.60
33564;DHT22;19894;48.452;11.494;2022-08-19T11:22:15;23.30;69.80
33564;DHT22;19894;48.452;11.494;2022-08-19T11:24:41;23.30;70.00
33564;DHT22;19894;48.452;11.494;2022-08-19T11:27:08;23.30;70.10
33564;DHT22;19894;48.452;11.494;2022-08-19T11:29:37;23.30;70.30
33564;DHT22;19894;48.452;11.494;2022-08-19T11:32:06;23.30;70.40
33564;DHT22;19894;48.452;11.494;2022-08-19T11:34:32;23.30;70.50
33564;DHT22;19894;48.452;11.494;2022-08-19T11:36:58;23.40;70.60
33564;DHT22;19894;48.452;11.494;2022-08-19T11:39:27;23.30;70.50
33564;DHT22;19894;48.452;11.494;2022-08-19T11:41:53;23.40;70.50
33564;DHT22;19894;48.452;11.494;2022-08-19T11:44:18;23.40;70.40
33564;DHT22;19894;48.452;11.494;2022-08-19T11:46:45;23.40;70.50
33564;DHT22;19894;48.452;11.494;2022-08-19T11:49:13;23.40;70.50
33564;DHT22;19894;48.452;11.494;2022-08-19T11:51:40;23.40;70.40
33564;DHT22;19894;48.452;11.494;2022-08-19T11:54:08;23.40;70.30
33564;DHT22;19894;48.452;11.494;2022-08-19T11:56:36;23.40;70.20
33564;DHT22;19894;48.452;11.494;2022-08-19T11:59:01;23.40;70.10
33564;DHT22;19894;48.452;11.494;2022-08-19T12:01:27;23.40;69.90
33564;DHT22;19894;48.452;11.494;2022-08-19T12:03:54;23.40;69.90
33564;DHT22;19894;48.452;11.494;2022-08-19T12:06:23;23.40;69.80
33564;DHT22;19894;48.452;11.494;2022-08-19T12:08:51;23.30;69.70
33564;DHT22;19894;48.452;11.494;2022-08-19T12:11:17;23.30;69.80
33564;DHT22;19894;48.452;11.494;2022-08-19T12:13:43;23.30;69.60
33564;DHT22;19894;48.452;11.494;2022-08-19T12:16:14;23.30;69.70
33564;DHT22;19894;48.452;11.494;2022-08-19T12:18:41;23.30;69.70
33564;DHT22;19894;48.452;11.494;2022-08-19T12:21:09;23.40;69.70
33564;DHT22;19894;48.452;11.494;2022-08-19T12:23:36;23.30;69.50
33564;DHT22;19894;48.452;11.494;2022-08-19T12:26:03;23.30;69.40
33564;DHT22;19894;48.452;11.494;2022-08-19T12:28:29;23.30;69.90
33564;DHT22;19894;48.452;11.494;2022-08-19T12:30:56;23.30;69.50
33564;DHT22;19894;48.452;11.494;2022-08-19T12:33:23;23.30;69.60
33564;DHT22;19894;48.452;11.494;2022-08-19T12:35:51;23.30;69.70
33564;DHT22;19894;48.452;11.494;2022-08-19T12:38:17;23.30;69.90
33564;DHT22;19894;48.452;11.494;2022-08-19T12:40:48;23.30;69.90
33564;DHT22;19894;48.452;11.494;2022-08-19T12:43:15;23.40;70.10
33564;DHT22;19894;48.452;11.494;2022-08-19T12:45:43;23.30;69.90
33564;DHT22;19894;48.452;11.494;2022-08-19T12:48:10;23.30;70.00
33564;DHT22;19894;48.452;11.494;2022-08-19T12:50:38;23.40;70.00
33564;DHT22;19894;48.452;11.494;2022-08-19T12:53:04;23.40;70.00
33564;DHT22;19894;48.452;11.494;2022-08-19T12:55:30;23.40;70.10
33564;DHT22;19894;48.452;11.494;2022-08-19T12:57:55;23.40;70.30
33564;DHT22;19894;48.452;11.494;2022-08-19T13:00:22;23.40;70.40
33564;DHT22;19894;48.452;11.494;2022-08-19T13:02:50;23.40;70.40
33564;DHT22;19894;48.452;11.494;2022-08-19T13:05:21;23.40;70.20
33564;DHT22;19894;48.452;11.494;2022-08-19T13:07:49;23.40;70.20
33564;DHT22;19894;48.452;11.494;2022-08-19T13:10:17;23.40;70.30
33564;DHT22;19894;48.452;11.494;2022-08-19T13:12:44;23.40;70.30
33564;DHT22;19894;48.452;11.494;2022-08-19T13:15:11;23.40;70.30
33564;DHT22;19894;48.452;11.494;2022-08-19T13:17:38;23.30;70.20
33564;DHT22;19894;48.452;11.494;2022-08-19T13:20:04;23.30;70.10
33564;DHT22;19894;48.452;11.494;2022-08-19T13:22:32;23.30;70.10
33564;DHT22;19894;48.452;11.494;2022-08-19T13:24:58;23.40;70.00
33564;DHT22;19894;48.452;11.494;2022-08-19T13:27:23;23.30;70.00
33564;DHT22;19894;48.452;11.494;2022-08-19T13:29:49;23.30;69.80
33564;DHT22;19894;48.452;11.494;2022-08-19T13:32:33;23.30;70.00
33564;DHT22;19894;48.452;11.494;2022-08-19T13:35:17;23.30;69.90
33564;DHT22;19894;48.452;11.494;2022-08-19T13:37:44;23.30;69.80
33564;DHT22;19894;48.452;11.494;2022-08-19T13:40:19;23.30;70.10
33564;DHT22;19894;48.452;11.494;2022-08-19T13:42:49;23.30;69.90
33564;DHT22;19894;48.452;11.494;2022-08-19T13:45:19;23.30;70.20
33564;DHT22;19894;48.452;11.494;2022-08-19T13:47:49;23.30;70.10
33564;DHT22;19894;48.452;11.494;2022-08-19T13:50:18;23.30;70.10
33564;DHT22;19894;48.452;11.494;2022-08-19T13:52:44;23.30;70.10
33564;DHT22;19894;48.452;11.494;2022-08-19T13:55:12;23.40;70.20
33564;DHT22;19894;48.452;11.494;2022-08-19T13:57:38;23.40;70.10
33564;DHT22;19894;48.452;11.494;2022-08-19T14:00:16;23.40;70.20
33564;DHT22;19894;48.452;11.494;2022-08-19T14:02:45;23.40;70.20
33564;DHT22;19894;48.452;11.494;2022-08-19T14:05:13;23.40;70.20
33564;DHT22;19894;48.452;11.494;2022-08-19T14:07:39;23.40;70.20
33564;DHT22;19894;48.452;11.494;2022-08-19T14:10:08;23.40;70.10
33564;DHT22;19894;48.452;11.494;2022-08-19T14:12:34;23.40;70.00
33564;DHT22;19894;48.452;11.494;2022-08-19T14:15:01;23.40;69.80
33564;DHT22;19894;48.452;11.494;2022-08-19T14:17:28;23.40;69.70
33564;DHT22;19894;48.452;11.494;2022-08-19T14:20:02;23.40;69.70
33564;DHT22;19894;48.452;11.494;2022-08-19T14:22:38;23.40;70.20
33564;DHT22;19894;48.452;11.494;2022-08-19T14:25:05;23.30;69.60
33564;DHT22;19894;48.452;11.494;2022-08-19T14:27:33;23.30;69.60
33564;DHT22;19894;48.452;11.494;2022-08-19T14:29:59;23.30;69.60
33564;DHT22;19894;48.452;11.494;2022-08-19T14:32:24;23.40;69.60
33564;DHT22;19894;48.452;11.494;2022-08-19T14:34:53;23.40;69.60
33564;DHT22;19894;48.452;11.494;2022-08-19T14:37:18;23.30;69.80
33564;DHT22;19894;48.452;11.494;2022-08-19T14:39:44;23.40;69.80
33564;DHT22;19894;48.452;11.494;2022-08-19T14:42:11;23.30;69.70
33564;DHT22;19894;48.452;11.494;2022-08-19T14:44:37;23.30;69.80
33564;DHT22;19894;48.452;11.494;2022-08-19T14:47:03;23.40;69.90
33564;DHT22;19894;48.452;11.494;2022-08-19T14:49:29;23.30;70.00
33564;DHT22;19894;48.452;11.494;2022-08-19T14:51:54;23.30;70.10
33564;DHT22;19894;48.452;11.494;2022-08-19T14:54:20;23.30;70.00
33564;DHT22;19894;48.452;11.494;2022-08-19T14:56:47;23.30;70.20
33564;DHT22;19894;48.452;11.494;2022-08-19T14:59:13;23.30;70.30
33564;DHT22;19894;48.452;11.494;2022-08-19T15:01:39;23.30;70.20
33564;DHT22;19894;48.452;11.494;2022-08-19T15:04:04;23.40;70.20
33564;DHT22;19894;48.452;11.494;2022-08-19T15:06:30;23.40;70.30
33564;DHT22;19894;48.452;11.494;2022-08-19T15:08:57;23.40;70.20
33564;DHT22;19894;48.452;11.494;2022-08-19T15:11:25;23.40;70.20
33564;DHT22;19894;48.452;11.494;2022-08-19T15:13:54;23.40;70.10
33564;DHT22;19894;48.452;11.494;2022-08-19T15:16:21;23.40;70.10
33564;DHT22;19894;48.452;11.494;2022-08-19T15:18:49;23.40;70.10
33564;DHT22;19894;48.452;11.494;2022-08-19T15:21:15;23.40;70.00
33564;DHT22;19894;48.452;11.494;2022-08-19T15:23:48;23.30;69.90
33564;DHT22;19894;48.452;11.494;2022-08-19T15:26:15;23.40;69.80